createdAt,value
2024-04-13T00:00:48.903Z,100512.59
2024-04-13T00:03:16.547Z,100515.00
2024-04-13T00:05:44.185Z,100508.72
2024-04-13T00:08:11.691Z,100506.75
2024-04-13T00:10:39.253Z,100507.38
2024-04-13T00:13:06.345Z,100503.56
2024-04-13T00:15:33.438Z,100505.59
2024-04-13T00:18:03.018Z,100506.03
2024-04-13T00:20:30.502Z,100506.44
2024-04-13T00:22:58.030Z,100501.81
2024-04-13T00:25:25.255Z,100500.06
2024-04-13T00:27:52.889Z,100495.56
2024-04-13T00:30:20.480Z,100490.28
2024-04-13T00:32:49.880Z,100488.63
2024-04-13T00:35:17.421Z,100501.94
2024-04-13T00:37:45.105Z,100498.22
2024-04-13T00:40:13.432Z,100499.59
2024-04-13T00:42:41.976Z,100503.63
2024-04-13T00:45:10.050Z,100509.41
2024-04-13T00:47:41.016Z,100508.34
2024-04-13T00:50:13.586Z,100502.38
2024-04-13T00:52:44.633Z,100497.31
2024-04-13T00:55:13.086Z,100496.63
2024-04-13T00:57:41.281Z,100497.72
2024-04-13T01:00:14.392Z,100495.38
2024-04-13T01:02:45.070Z,100501.13
2024-04-13T01:05:16.341Z,100508.19
2024-04-13T01:07:47.634Z,100512.53
2024-04-13T01:10:18.590Z,100511.06
2024-04-13T01:12:46.118Z,100513.50
2024-04-13T01:15:17.131Z,100509.47
2024-04-13T01:17:45.338Z,100508.53
2024-04-13T01:20:14.120Z,100516.28
2024-04-13T01:22:47.483Z,100513.44
2024-04-13T01:25:16.856Z,100506.13
2024-04-13T01:27:45.167Z,100512.84
2024-04-13T01:30:15.811Z,100511.28
2024-04-13T01:32:43.458Z,100508.09
2024-04-13T01:35:15.003Z,100515.22
2024-04-13T01:37:43.506Z,100517.66
2024-04-13T01:40:11.720Z,100516.94
2024-04-13T01:42:42.559Z,100512.44
2024-04-13T01:45:13.005Z,100520.38
2024-04-13T01:47:42.208Z,100520.09
2024-04-13T01:50:09.579Z,100513.75
2024-04-13T01:52:37.056Z,100518.44
2024-04-13T01:55:05.948Z,100519.13
2024-04-13T01:57:34.122Z,100524.44
2024-04-13T02:00:04.781Z,100521.38
2024-04-13T02:02:32.434Z,100526.44
2024-04-13T02:04:59.716Z,100518.75
2024-04-13T02:07:30.935Z,100520.69
2024-04-13T02:10:01.724Z,100515.59
2024-04-13T02:12:29.508Z,100526.28
2024-04-13T02:14:56.662Z,100511.69
2024-04-13T02:17:23.832Z,100509.91
2024-04-13T02:19:51.977Z,100518.16
2024-04-13T02:22:20.206Z,100516.06
2024-04-13T02:24:52.329Z,100518.69
2024-04-13T02:27:22.543Z,100523.16
2024-04-13T02:29:51.345Z,100518.94
2024-04-13T02:32:20.747Z,100532.16
2024-04-13T02:34:49.057Z,100530.41
2024-04-13T02:37:16.553Z,100521.13
2024-04-13T02:39:44.177Z,100518.56
2024-04-13T02:42:13.695Z,100520.00
2024-04-13T02:44:43.310Z,100530.19
2024-04-13T02:47:10.518Z,100530.13
2024-04-13T02:49:37.961Z,100523.13
2024-04-13T02:52:07.252Z,100531.28
2024-04-13T02:54:35.955Z,100527.84
2024-04-13T02:57:03.697Z,100531.41
2024-04-13T02:59:30.914Z,100519.78
2024-04-13T03:01:58.386Z,100524.59
2024-04-13T03:04:27.819Z,100527.84
2024-04-13T03:07:00.828Z,100533.94
2024-04-13T03:09:29.074Z,100539.03
2024-04-13T03:11:57.593Z,100539.78
2024-04-13T03:14:25.043Z,100530.03
2024-04-13T03:16:52.541Z,100535.28
2024-04-13T03:19:20.325Z,100532.56
2024-04-13T03:21:48.383Z,100529.09
2024-04-13T03:24:15.771Z,100532.47
2024-04-13T03:26:43.374Z,100522.47
2024-04-13T03:29:10.482Z,100525.44
2024-04-13T03:31:37.805Z,100514.06
2024-04-13T03:34:06.242Z,100524.94
2024-04-13T03:36:33.459Z,100517.41
2024-04-13T03:39:01.012Z,100528.88
2024-04-13T03:41:29.503Z,100523.31
2024-04-13T03:43:57.353Z,100523.41
2024-04-13T03:46:28.083Z,100524.81
2024-04-13T03:48:55.781Z,100532.16
2024-04-13T03:51:24.184Z,100533.16
2024-04-13T03:53:51.180Z,100533.59
2024-04-13T03:56:20.622Z,100532.66
2024-04-13T03:58:48.661Z,100541.50
2024-04-13T04:01:16.005Z,100534.97
2024-04-13T04:03:46.272Z,100530.53
2024-04-13T04:06:13.914Z,100535.78
2024-04-13T04:08:45.140Z,100540.44
2024-04-13T04:11:12.366Z,100545.16
2024-04-13T04:13:41.935Z,100538.81
2024-04-13T04:16:10.261Z,100542.38
2024-04-13T04:18:37.479Z,100542.00
2024-04-13T04:21:05.992Z,100547.34
2024-04-13T04:23:33.297Z,100534.84
2024-04-13T04:26:01.190Z,100534.91
2024-04-13T04:28:30.623Z,100542.72
2024-04-13T04:31:11.527Z,100547.78
2024-04-13T04:33:40.734Z,100547.00
2024-04-13T04:36:13.278Z,100545.13
2024-04-13T04:38:44.967Z,100547.38
2024-04-13T04:41:13.146Z,100545.56
2024-04-13T04:43:40.617Z,100543.78
2024-04-13T04:46:10.946Z,100548.69
2024-04-13T04:48:38.670Z,100540.75
2024-04-13T04:51:09.024Z,100538.06
2024-04-13T04:53:36.506Z,100530.16
2024-04-13T04:56:04.187Z,100541.75
2024-04-13T04:58:34.000Z,100546.66
2024-04-13T05:01:03.093Z,100549.22
2024-04-13T05:03:31.610Z,100542.56
2024-04-13T05:05:58.999Z,100541.50
2024-04-13T05:08:29.096Z,100539.34
2024-04-13T05:10:59.384Z,100538.97
2024-04-13T05:13:27.177Z,100538.78
2024-04-13T05:15:55.599Z,100532.44
2024-04-13T05:18:25.323Z,100537.16
2024-04-13T05:20:52.364Z,100527.88
2024-04-13T05:23:19.562Z,100522.91
2024-04-13T05:25:47.901Z,100525.91
2024-04-13T05:28:15.295Z,100524.38
2024-04-13T05:30:56.939Z,100529.09
2024-04-13T05:33:25.203Z,100522.97
2024-04-13T05:36:03.261Z,100518.91
2024-04-13T05:38:32.998Z,100512.94
2024-04-13T05:41:00.800Z,100517.13
2024-04-13T05:43:29.597Z,100525.69
2024-04-13T05:45:57.215Z,100522.44
2024-04-13T05:48:24.905Z,100517.75
2024-04-13T05:51:01.557Z,100516.94
2024-04-13T05:53:29.037Z,100531.97
2024-04-13T05:55:57.244Z,100530.66
2024-04-13T05:58:24.831Z,100529.69
2024-04-13T06:00:56.397Z,100539.44
2024-04-13T06:03:25.148Z,100539.13
2024-04-13T06:05:52.654Z,100533.44
2024-04-13T06:08:20.201Z,100530.25
2024-04-13T06:10:54.788Z,100538.25
2024-04-13T06:13:21.836Z,100534.28
2024-04-13T06:15:50.393Z,100535.53
2024-04-13T06:18:18.887Z,100532.44
2024-04-13T06:20:47.782Z,100541.94
2024-04-13T06:23:16.747Z,100537.16
2024-04-13T06:25:47.012Z,100543.44
2024-04-13T06:28:16.438Z,100536.16
2024-04-13T06:30:47.293Z,100530.38
2024-04-13T06:33:18.088Z,100535.34
2024-04-13T06:35:49.514Z,100531.59
2024-04-13T06:38:22.234Z,100540.72
2024-04-13T06:40:52.402Z,100533.56
2024-04-13T06:43:20.371Z,100540.56
2024-04-13T06:45:48.764Z,100538.63
2024-04-13T06:48:17.075Z,100535.31
2024-04-13T06:50:47.154Z,100535.34
2024-04-13T06:53:14.597Z,100540.38
2024-04-13T06:55:42.031Z,100539.28
2024-04-13T06:58:11.843Z,100538.25
2024-04-13T07:00:38.955Z,100538.84
2024-04-13T07:03:08.591Z,100529.34
2024-04-13T07:05:35.908Z,100534.78
2024-04-13T07:08:03.499Z,100529.78
2024-04-13T07:10:31.459Z,100534.88
2024-04-13T07:12:58.476Z,100526.66
2024-04-13T07:15:26.768Z,100526.66
2024-04-13T07:17:54.294Z,100526.25
2024-04-13T07:20:23.832Z,100527.28
2024-04-13T07:22:55.319Z,100527.44
2024-04-13T07:25:22.705Z,100536.91
2024-04-13T07:27:50.438Z,100538.41
2024-04-13T07:30:19.728Z,100551.16
2024-04-13T07:32:48.159Z,100534.34
2024-04-13T07:35:17.691Z,100537.03
2024-04-13T07:37:46.415Z,100539.53
2024-04-13T07:40:23.511Z,100546.09
2024-04-13T07:42:52.933Z,100542.72
2024-04-13T07:45:20.361Z,100541.34
2024-04-13T07:47:47.937Z,100543.84
2024-04-13T07:50:16.277Z,100547.91
2024-04-13T07:52:43.669Z,100539.28
2024-04-13T07:55:11.151Z,100535.78
2024-04-13T07:57:38.764Z,100538.84
2024-04-13T08:00:09.944Z,100539.03
2024-04-13T08:02:37.847Z,100539.75
2024-04-13T08:05:05.402Z,100540.75
2024-04-13T08:07:33.613Z,100528.69
2024-04-13T08:10:05.171Z,100529.94
2024-04-13T08:12:34.884Z,100525.00
2024-04-13T08:15:04.799Z,100530.38
2024-04-13T08:17:34.206Z,100534.16
2024-04-13T08:20:10.751Z,100520.00
2024-04-13T08:22:38.427Z,100530.63
2024-04-13T08:25:06.969Z,100529.53
2024-04-13T08:27:35.211Z,100537.91
2024-04-13T08:30:03.535Z,100516.47
2024-04-13T08:32:32.855Z,100530.06
2024-04-13T08:35:03.158Z,100525.19
2024-04-13T08:37:31.777Z,100535.97
2024-04-13T08:39:59.069Z,100528.81
2024-04-13T08:42:35.875Z,100526.75
2024-04-13T08:45:05.984Z,100532.00
2024-04-13T08:47:34.574Z,100532.25
2024-04-13T08:50:03.861Z,100529.72
2024-04-13T08:52:35.296Z,100522.69
2024-04-13T08:55:06.616Z,100528.78
2024-04-13T08:57:37.566Z,100520.50
2024-04-13T09:00:09.998Z,100518.50
2024-04-13T09:02:40.476Z,100522.50
2024-04-13T09:05:09.972Z,100529.97
2024-04-13T09:07:38.511Z,100534.78
2024-04-13T09:10:12.647Z,100539.47
2024-04-13T09:12:40.098Z,100536.91
2024-04-13T09:15:08.846Z,100538.97
2024-04-13T09:17:37.094Z,100540.81
2024-04-13T09:20:13.743Z,100533.31
2024-04-13T09:22:42.169Z,100532.91
2024-04-13T09:25:20.169Z,100541.13
2024-04-13T09:28:04.697Z,100527.94
2024-04-13T09:30:33.184Z,100512.81
2024-04-13T09:33:11.906Z,100519.19
2024-04-13T09:35:39.093Z,100515.63
2024-04-13T09:38:07.571Z,100514.84
2024-04-13T09:40:36.426Z,100516.41
2024-04-13T09:43:07.999Z,100513.22
2024-04-13T09:45:39.857Z,100500.78
2024-04-13T09:48:07.854Z,100480.69
2024-04-13T09:50:35.223Z,100487.88
2024-04-13T09:53:02.888Z,100477.00
2024-04-13T09:55:36.762Z,100459.44
2024-04-13T09:58:06.109Z,100469.16
2024-04-13T10:00:39.001Z,100472.38
2024-04-13T10:03:10.454Z,100469.38
2024-04-13T10:05:39.487Z,100473.81
2024-04-13T10:08:08.675Z,100484.97
2024-04-13T10:10:38.857Z,100479.72
2024-04-13T10:13:07.904Z,100460.53
2024-04-13T10:15:36.146Z,100456.25
2024-04-13T10:18:06.708Z,100448.75
2024-04-13T10:20:37.850Z,100457.69
2024-04-13T10:23:11.667Z,100462.34
2024-04-13T10:25:39.019Z,100470.75
2024-04-13T10:28:11.507Z,100454.13
2024-04-13T10:30:55.684Z,100461.09
2024-04-13T10:33:27.212Z,100443.38
2024-04-13T10:36:06.213Z,100452.91
2024-04-13T10:38:35.134Z,100452.66
2024-04-13T10:41:04.264Z,100453.91
2024-04-13T10:43:33.194Z,100454.66
2024-04-13T10:46:03.280Z,100465.78
2024-04-13T10:48:34.060Z,100456.34
2024-04-13T10:51:06.241Z,100463.34
2024-04-13T10:53:33.324Z,100464.97
2024-04-13T10:56:00.754Z,100454.13
2024-04-13T10:58:30.685Z,100436.97
2024-04-13T11:01:02.470Z,100442.63
2024-04-13T11:03:31.350Z,100440.91
2024-04-13T11:05:59.819Z,100424.13
2024-04-13T11:08:28.791Z,100413.69
2024-04-13T11:10:58.176Z,100429.66
2024-04-13T11:13:25.933Z,100428.50
2024-04-13T11:15:53.727Z,100413.34
2024-04-13T11:18:23.389Z,100398.75
2024-04-13T11:21:06.728Z,100404.63
2024-04-13T11:23:37.063Z,100405.13
2024-04-13T11:26:05.091Z,100397.50
2024-04-13T11:28:35.650Z,100380.97
2024-04-13T11:31:03.118Z,100385.06
2024-04-13T11:33:33.782Z,100381.25
2024-04-13T11:36:02.405Z,100375.19
2024-04-13T11:38:36.600Z,100383.03
2024-04-13T11:41:05.467Z,100382.69
2024-04-13T11:43:32.617Z,100372.63
2024-04-13T11:46:00.260Z,100381.75
2024-04-13T11:48:31.834Z,100385.56
2024-04-13T11:50:59.433Z,100375.94
2024-04-13T11:53:28.172Z,100377.25
2024-04-13T11:55:55.549Z,100375.72
2024-04-13T11:58:25.563Z,100380.03
2024-04-13T12:00:54.093Z,100379.03
2024-04-13T12:03:24.437Z,100379.28
2024-04-13T12:05:53.030Z,100376.03
2024-04-13T12:08:21.635Z,100374.34
2024-04-13T12:10:49.276Z,100364.06
2024-04-13T12:13:16.337Z,100367.78
2024-04-13T12:15:44.662Z,100368.34
2024-04-13T12:18:13.273Z,100360.94
2024-04-13T12:20:40.762Z,100362.41
2024-04-13T12:23:10.320Z,100351.63
2024-04-13T12:25:41.804Z,100347.94
2024-04-13T12:28:09.238Z,100348.00
2024-04-13T12:30:36.937Z,100330.91
2024-04-13T12:33:04.350Z,100333.78
2024-04-13T12:35:31.999Z,100331.50
2024-04-13T12:38:01.767Z,100325.34
2024-04-13T12:40:31.003Z,100321.19
2024-04-13T12:42:58.622Z,100320.97
2024-04-13T12:45:27.096Z,100308.91
2024-04-13T12:47:57.569Z,100317.25
2024-04-13T12:50:25.036Z,100306.44
2024-04-13T12:52:52.716Z,100299.75
2024-04-13T12:55:21.004Z,100306.75
2024-04-13T12:57:50.726Z,100305.22
2024-04-13T13:00:18.137Z,100293.50
2024-04-13T13:02:46.464Z,100289.06
2024-04-13T13:05:14.099Z,100292.72
2024-04-13T13:07:41.271Z,100277.84
2024-04-13T13:10:08.946Z,100284.66
2024-04-13T13:12:36.049Z,100284.47
2024-04-13T13:15:04.572Z,100279.03
2024-04-13T13:17:36.342Z,100272.00
2024-04-13T13:20:04.752Z,100279.41
2024-04-13T13:22:32.253Z,100266.31
2024-04-13T13:25:38.794Z,100268.69
2024-04-13T13:28:08.002Z,100273.84
2024-04-13T13:30:41.854Z,100269.41
2024-04-13T13:33:13.805Z,100270.31
2024-04-13T13:35:43.186Z,100259.16
2024-04-13T13:38:11.543Z,100251.47
2024-04-13T13:40:38.739Z,100255.06
2024-04-13T13:43:12.705Z,100260.72
2024-04-13T13:45:41.843Z,100253.13
2024-04-13T13:48:09.548Z,100246.97
2024-04-13T13:50:37.347Z,100243.81
2024-04-13T13:53:05.750Z,100244.59
2024-04-13T13:55:33.420Z,100243.78
2024-04-13T13:58:02.274Z,100234.38
2024-04-13T14:00:31.634Z,100245.78
2024-04-13T14:03:00.242Z,100250.88
2024-04-13T14:05:28.954Z,100240.75
2024-04-13T14:07:56.085Z,100226.31
2024-04-13T14:10:27.373Z,100237.91
2024-04-13T14:12:57.726Z,100223.81
2024-04-13T14:15:25.099Z,100215.00
2024-04-13T14:17:53.333Z,100207.84
2024-04-13T14:20:21.504Z,100209.09
2024-04-13T14:22:48.951Z,100219.56
2024-04-13T14:25:16.669Z,100232.63
2024-04-13T14:27:43.904Z,100212.84
2024-04-13T14:30:11.674Z,100216.78
2024-04-13T14:32:39.932Z,100206.22
2024-04-13T14:35:08.569Z,100204.91
2024-04-13T14:37:36.850Z,100196.63
2024-04-13T14:40:05.753Z,100210.16
2024-04-13T14:42:34.319Z,100204.34
2024-04-13T14:45:01.757Z,100203.19
2024-04-13T14:47:29.259Z,100204.94
2024-04-13T14:49:57.691Z,100198.78
2024-04-13T14:52:26.170Z,100197.50
2024-04-13T14:54:53.607Z,100198.06
2024-04-13T14:57:21.396Z,100194.56
2024-04-13T14:59:48.641Z,100192.44
2024-04-13T15:02:16.412Z,100196.00
2024-04-13T15:04:43.532Z,100192.31
2024-04-13T15:07:12.055Z,100191.88
2024-04-13T15:09:40.689Z,100187.66
2024-04-13T15:12:08.353Z,100185.66
2024-04-13T15:14:38.310Z,100174.41
2024-04-13T15:17:06.707Z,100170.56
2024-04-13T15:19:34.219Z,100169.72
2024-04-13T15:22:03.366Z,100161.91
2024-04-13T15:24:30.546Z,100167.00
2024-04-13T15:27:00.054Z,100170.38
2024-04-13T15:29:27.606Z,100168.41
2024-04-13T15:31:55.953Z,100159.75
2024-04-13T15:34:24.455Z,100162.56
2024-04-13T15:36:52.058Z,100159.59
2024-04-13T15:39:21.558Z,100161.59
2024-04-13T15:41:49.873Z,100158.13
2024-04-13T15:44:18.855Z,100152.50
2024-04-13T15:46:45.794Z,100154.56
2024-04-13T15:49:13.458Z,100158.44
2024-04-13T15:51:41.678Z,100161.41
2024-04-13T15:54:13.072Z,100151.66
2024-04-13T15:56:43.416Z,100151.41
2024-04-13T15:59:12.933Z,100143.03
2024-04-13T16:01:44.400Z,100148.63
2024-04-13T16:04:11.599Z,100145.97
2024-04-13T16:06:38.872Z,100146.88
2024-04-13T16:09:05.987Z,100142.22
2024-04-13T16:11:34.444Z,100141.53
2024-04-13T16:14:04.804Z,100142.78
2024-04-13T16:16:31.830Z,100136.69
2024-04-13T16:19:01.538Z,100148.31
2024-04-13T16:21:28.739Z,100138.03
2024-04-13T16:23:56.029Z,100145.78
2024-04-13T16:26:23.147Z,100145.50
2024-04-13T16:28:51.766Z,100142.53
2024-04-13T16:31:20.040Z,100137.50
2024-04-13T16:33:47.165Z,100137.44
2024-04-13T16:36:15.976Z,100143.59
2024-04-13T16:38:43.049Z,100126.09
2024-04-13T16:41:11.578Z,100129.66
2024-04-13T16:43:38.869Z,100131.59
2024-04-13T16:46:05.839Z,100133.88
2024-04-13T16:48:32.914Z,100135.03
2024-04-13T16:51:02.564Z,100138.53
2024-04-13T16:53:35.862Z,100146.81
2024-04-13T16:56:04.597Z,100133.03
2024-04-13T16:58:33.880Z,100133.09
2024-04-13T17:01:02.776Z,100128.19
2024-04-13T17:03:31.558Z,100139.06
2024-04-13T17:05:58.794Z,100142.59
2024-04-13T17:08:29.107Z,100139.81
2024-04-13T17:10:58.472Z,100136.22
2024-04-13T17:13:25.713Z,100140.25
2024-04-13T17:15:53.322Z,100140.47
2024-04-13T17:18:20.846Z,100126.69
2024-04-13T17:20:54.539Z,100128.28
2024-04-13T17:23:21.930Z,100134.97
2024-04-13T17:25:49.256Z,100131.34
2024-04-13T17:28:16.724Z,100128.75
2024-04-13T17:30:47.667Z,100138.63
2024-04-13T17:33:15.459Z,100135.97
2024-04-13T17:35:47.341Z,100135.81
2024-04-13T17:38:14.611Z,100136.03
2024-04-13T17:40:41.585Z,100141.13
2024-04-13T17:43:11.143Z,100131.94
2024-04-13T17:45:38.710Z,100134.50
2024-04-13T17:48:05.992Z,100127.28
2024-04-13T17:50:35.623Z,100133.28
2024-04-13T17:53:05.957Z,100136.28
2024-04-13T17:55:33.062Z,100138.06
2024-04-13T17:58:01.544Z,100126.28
2024-04-13T18:00:29.149Z,100132.97
2024-04-13T18:02:59.707Z,100128.78
2024-04-13T18:05:28.163Z,100138.66
2024-04-13T18:07:56.165Z,100140.47
2024-04-13T18:10:23.420Z,100135.53
2024-04-13T18:12:51.111Z,100142.22
2024-04-13T18:15:18.301Z,100134.28
2024-04-13T18:17:47.539Z,100149.34
2024-04-13T18:20:15.864Z,100144.13
2024-04-13T18:22:43.275Z,100145.53
2024-04-13T18:25:10.634Z,100143.66
2024-04-13T18:27:37.936Z,100149.16
2024-04-13T18:30:07.346Z,100137.66
2024-04-13T18:32:36.866Z,100131.44
2024-04-13T18:35:06.715Z,100139.72
2024-04-13T18:37:35.166Z,100153.13
2024-04-13T18:40:02.800Z,100149.78
2024-04-13T18:42:31.129Z,100147.34
2024-04-13T18:44:59.554Z,100146.59
2024-04-13T18:47:27.123Z,100141.44
2024-04-13T18:49:56.071Z,100136.94
2024-04-13T18:52:23.948Z,100135.13
2024-04-13T18:54:52.393Z,100133.31
2024-04-13T18:57:19.599Z,100142.88
2024-04-13T18:59:47.885Z,100141.97
2024-04-13T19:02:15.307Z,100138.44
2024-04-13T19:04:45.298Z,100126.03
2024-04-13T19:07:12.759Z,100119.84
2024-04-13T19:09:42.201Z,100124.41
2024-04-13T19:12:09.665Z,100121.75
2024-04-13T19:14:41.150Z,100116.03
2024-04-13T19:17:08.200Z,100114.59
2024-04-13T19:19:37.043Z,100115.19
2024-04-13T19:22:04.690Z,100106.00
2024-04-13T19:24:31.722Z,100102.84
2024-04-13T19:27:01.902Z,100115.16
2024-04-13T19:29:29.566Z,100118.34
2024-04-13T19:31:57.237Z,100116.41
2024-04-13T19:34:24.447Z,100127.53
2024-04-13T19:36:51.508Z,100125.81
2024-04-13T19:39:19.197Z,100112.94
2024-04-13T19:41:46.494Z,100107.13
2024-04-13T19:44:17.970Z,100100.38
2024-04-13T19:46:45.270Z,100105.66
2024-04-13T19:49:14.627Z,100102.78
2024-04-13T19:51:43.065Z,100105.22
2024-04-13T19:54:11.426Z,100106.41
2024-04-13T19:56:38.832Z,100103.84
2024-04-13T19:59:05.937Z,100105.72
2024-04-13T20:01:33.270Z,100104.72
2024-04-13T20:04:05.658Z,100098.03
2024-04-13T20:06:36.323Z,100092.34
2024-04-13T20:09:05.097Z,100076.59
2024-04-13T20:11:34.391Z,100076.28
2024-04-13T20:14:01.811Z,100074.97
2024-04-13T20:16:42.595Z,100075.84
2024-04-13T20:19:11.631Z,100068.53
2024-04-13T20:21:38.839Z,100061.03
2024-04-13T20:24:06.156Z,100064.19
2024-04-13T20:26:33.331Z,100067.03
2024-04-13T20:29:00.829Z,100062.03
2024-04-13T20:31:28.272Z,100054.84
2024-04-13T20:33:55.832Z,100056.63
2024-04-13T20:36:23.427Z,100064.84
2024-04-13T20:38:50.823Z,100057.72
2024-04-13T20:41:18.289Z,100048.13
2024-04-13T20:43:45.759Z,100044.75
2024-04-13T20:46:14.143Z,100042.00
2024-04-13T20:48:42.821Z,100039.69
2024-04-13T20:51:10.090Z,100037.53
2024-04-13T20:53:37.670Z,100041.56
2024-04-13T20:56:05.422Z,100029.78
2024-04-13T20:58:32.661Z,100037.91
2024-04-13T21:01:00.288Z,100038.63
2024-04-13T21:03:27.656Z,100026.34
2024-04-13T21:05:55.946Z,100023.41
2024-04-13T21:08:23.463Z,100026.97
2024-04-13T21:10:50.849Z,100019.38
2024-04-13T21:13:18.321Z,100016.47
2024-04-13T21:15:46.121Z,100015.16
2024-04-13T21:18:13.311Z,100019.22
2024-04-13T21:20:40.782Z,100014.03
2024-04-13T21:23:08.271Z,100007.00
2024-04-13T21:25:39.929Z,100000.44
2024-04-13T21:28:09.320Z,99991.00
2024-04-13T21:30:39.277Z,99993.41
2024-04-13T21:33:06.931Z,99988.16
2024-04-13T21:35:39.153Z,99992.84
2024-04-13T21:38:06.244Z,99992.53
2024-04-13T21:40:33.709Z,99987.84
2024-04-13T21:43:01.107Z,99985.50
2024-04-13T21:45:28.309Z,99988.97
2024-04-13T21:47:57.727Z,99986.34
2024-04-13T21:50:25.318Z,99969.81
2024-04-13T21:52:53.635Z,99970.88
2024-04-13T21:55:21.226Z,99962.53
2024-04-13T21:57:48.585Z,99955.72
2024-04-13T22:00:17.560Z,99957.00
2024-04-13T22:02:45.400Z,99952.50
2024-04-13T22:05:13.233Z,99950.94
2024-04-13T22:07:41.662Z,99944.22
2024-04-13T22:10:09.235Z,99944.03
2024-04-13T22:12:36.505Z,99946.88
2024-04-13T22:15:04.658Z,99947.16
2024-04-13T22:17:31.921Z,99940.28
2024-04-13T22:19:59.336Z,99939.00
2024-04-13T22:22:26.850Z,99938.16
2024-04-13T22:24:53.890Z,99941.91
2024-04-13T22:27:23.335Z,99942.28
2024-04-13T22:29:55.385Z,99938.97
2024-04-13T22:32:22.845Z,99930.78
2024-04-13T22:34:50.271Z,99929.44
2024-04-13T22:37:20.138Z,99919.91
2024-04-13T22:39:47.796Z,99928.41
2024-04-13T22:42:15.419Z,99928.91
2024-04-13T22:44:42.722Z,99922.81
2024-04-13T22:47:10.256Z,99910.81
2024-04-13T22:49:37.669Z,99911.38
2024-04-13T22:52:05.339Z,99912.47
2024-04-13T22:54:34.996Z,99913.88
2024-04-13T22:57:03.661Z,99905.66
2024-04-13T22:59:30.885Z,99900.13
2024-04-13T23:01:58.690Z,99895.28
2024-04-13T23:04:26.259Z,99901.38
2024-04-13T23:06:55.814Z,99885.34
2024-04-13T23:09:24.140Z,99889.34
2024-04-13T23:11:55.671Z,99882.31
2024-04-13T23:14:23.321Z,99881.66
2024-04-13T23:16:54.819Z,99872.53
2024-04-13T23:19:22.224Z,99876.34
2024-04-13T23:21:50.717Z,99871.13
2024-04-13T23:24:17.705Z,99866.81
2024-04-13T23:26:45.604Z,99870.56
2024-04-13T23:29:15.357Z,99855.09
2024-04-13T23:31:45.632Z,99860.88
2024-04-13T23:34:13.282Z,99853.53
2024-04-13T23:36:42.015Z,99847.22
2024-04-13T23:39:11.814Z,99853.03
2024-04-13T23:41:41.239Z,99849.63
2024-04-13T23:44:14.219Z,99843.75
2024-04-13T23:46:42.949Z,99842.41
2024-04-13T23:49:10.785Z,99834.59
2024-04-13T23:51:39.325Z,99832.22
2024-04-13T23:54:08.668Z,99842.88
2024-04-13T23:56:39.009Z,99833.69
2024-04-13T23:59:09.439Z,99838.50
